sensor_id;sensor_type;location;lat;lon;timestamp;pressure;altitude;pressure_sealevel;temperature;humidity
58473;BME280;44775;51.564;5.460;2023-07-31T00:00:56;100762.66;;;15.34;100.00
58473;BME280;44775;51.564;5.460;2023-07-31T00:03:22;100768.69;;;15.37;100.00
58473;BME280;44775;51.564;5.460;2023-07-31T00:05:47;100778.84;;;15.41;100.00
58473;BME280;44775;51.564;5.460;2023-07-31T00:08:12;100777.59;;;15.44;100.00
58473;BME280;44775;51.564;5.460;2023-07-31T00:10:38;100773.03;;;15.44;100.00
58473;BME280;44775;51.564;5.460;2023-07-31T00:13:03;100763.06;;;15.38;100.00
58473;BME280;44775;51.564;5.460;2023-07-31T00:15:28;100776.94;;;15.35;100.00
58473;BME280;44775;51.564;5.460;2023-07-31T00:17:53;100776.38;;;15.46;100.00
58473;BME280;44775;51.564;5.460;2023-07-31T00:20:19;100777.41;;;15.52;100.00
58473;BME280;44775;51.564;5.460;2023-07-31T00:22:44;100778.03;;;15.47;100.00
58473;BME280;44775;51.564;5.460;2023-07-31T00:25:09;100773.72;;;15.53;100.00
58473;BME280;44775;51.564;5.460;2023-07-31T00:27:35;100766.00;;;15.43;100.00
58473;BME280;44775;51.564;5.460;2023-07-31T00:30:00;100772.03;;;15.52;100.00
58473;BME280;44775;51.564;5.460;2023-07-31T00:32:26;100775.34;;;15.54;100.00
58473;BME280;44775;51.564;5.460;2023-07-31T00:34:51;100773.91;;;15.51;100.00
58473;BME280;44775;51.564;5.460;2023-07-31T00:37:16;100767.91;;;15.49;100.00
58473;BME280;44775;51.564;5.460;2023-07-31T00:39:41;100769.34;;;15.52;100.00
58473;BME280;44775;51.564;5.460;2023-07-31T00:42:07;100766.03;;;15.50;100.00
58473;BME280;44775;51.564;5.460;2023-07-31T00:44:32;100763.34;;;15.50;100.00
58473;BME280;44775;51.564;5.460;2023-07-31T00:46:58;100769.13;;;15.47;100.00
58473;BME280;44775;51.564;5.460;2023-07-31T00:49:24;100765.00;;;15.51;100.00
58473;BME280;44775;51.564;5.460;2023-07-31T00:51:50;100756.69;;;15.46;100.00
58473;BME280;44775;51.564;5.460;2023-07-31T00:54:15;100760.00;;;15.48;100.00
58473;BME280;44775;51.564;5.460;2023-07-31T00:56:44;100759.16;;;15.41;100.00
58473;BME280;44775;51.564;5.460;2023-07-31T00:59:10;100757.94;;;15.43;100.00
58473;BME280;44775;51.564;5.460;2023-07-31T01:01:35;100754.19;;;15.44;100.00
58473;BME280;44775;51.564;5.460;2023-07-31T01:04:01;100745.06;;;15.45;100.00
58473;BME280;44775;51.564;5.460;2023-07-31T01:06:36;100754.63;;;15.48;100.00
58473;BME280;44775;51.564;5.460;2023-07-31T01:09:05;100757.53;;;15.46;100.00
58473;BME280;44775;51.564;5.460;2023-07-31T01:11:43;100739.25;;;15.42;100.00
58473;BME280;44775;51.564;5.460;2023-07-31T01:14:11;100745.50;;;15.49;100.00
58473;BME280;44775;51.564;5.460;2023-07-31T01:16:36;100747.16;;;15.43;100.00
58473;BME280;44775;51.564;5.460;2023-07-31T01:19:02;100747.34;;;15.42;100.00
58473;BME280;44775;51.564;5.460;2023-07-31T01:21:39;100750.47;;;15.52;100.00
58473;BME280;44775;51.564;5.460;2023-07-31T01:27:10;100751.09;;;15.47;100.00
58473;BME280;44775;51.564;5.460;2023-07-31T01:29:48;100743.84;;;15.48;100.00
58473;BME280;44775;51.564;5.460;2023-07-31T01:32:14;100755.06;;;15.58;100.00
58473;BME280;44775;51.564;5.460;2023-07-31T01:34:41;100745.06;;;15.45;100.00
58473;BME280;44775;51.564;5.460;2023-07-31T01:37:06;100757.16;;;15.56;100.00
58473;BME280;44775;51.564;5.460;2023-07-31T01:39:32;100748.41;;;15.47;100.00
58473;BME280;44775;51.564;5.460;2023-07-31T01:41:57;100748.41;;;15.47;100.00
58473;BME280;44775;51.564;5.460;2023-07-31T01:44:22;100738.25;;;15.43;100.00
58473;BME280;44775;51.564;5.460;2023-07-31T01:46:48;100737.41;;;15.42;100.00
58473;BME280;44775;51.564;5.460;2023-07-31T01:49:13;100743.22;;;15.39;100.00
58473;BME280;44775;51.564;5.460;2023-07-31T01:51:38;100737.41;;;15.42;100.00
58473;BME280;44775;51.564;5.460;2023-07-31T01:54:04;100728.31;;;15.43;100.00
58473;BME280;44775;51.564;5.460;2023-07-31T01:56:29;100724.56;;;15.44;100.00
58473;BME280;44775;51.564;5.460;2023-07-31T01:58:54;100722.91;;;15.37;100.00
58473;BME280;44775;51.564;5.460;2023-07-31T02:01:20;100722.94;;;15.43;100.00
58473;BME280;44775;51.564;5.460;2023-07-31T02:03:45;100723.09;;;15.35;100.00
58473;BME280;44775;51.564;5.460;2023-07-31T02:06:10;100716.88;;;15.34;100.00
58473;BME280;44775;51.564;5.460;2023-07-31T02:08:36;100719.97;;;15.31;100.00
58473;BME280;44775;51.564;5.460;2023-07-31T02:11:01;100723.72;;;15.30;100.00
58473;BME280;44775;51.564;5.460;2023-07-31T02:13:27;100723.09;;;15.35;100.00
58473;BME280;44775;51.564;5.460;2023-07-31T02:15:52;100711.06;;;15.24;100.00
58473;BME280;44775;51.564;5.460;2023-07-31T02:18:17;100705.69;;;15.31;100.00
58473;BME280;44775;51.564;5.460;2023-07-31T02:20:43;100702.78;;;15.26;100.00
58473;BME280;44775;51.564;5.460;2023-07-31T02:23:11;100708.19;;;15.26;100.00
58473;BME280;44775;51.564;5.460;2023-07-31T02:25:36;100705.66;;;15.24;100.00
58473;BME280;44775;51.564;5.460;2023-07-31T02:28:02;100701.13;;;15.31;100.00
58473;BME280;44775;51.564;5.460;2023-07-31T02:30:27;100698.84;;;15.28;100.00
58473;BME280;44775;51.564;5.460;2023-07-31T02:32:52;100688.91;;;15.22;100.00
58473;BME280;44775;51.564;5.460;2023-07-31T02:35:18;100695.31;;;15.21;100.00
58473;BME280;44775;51.564;5.460;2023-07-31T02:37:43;100690.13;;;15.20;100.00
58473;BME280;44775;51.564;5.460;2023-07-31T02:40:09;100690.16;;;15.26;100.00
58473;BME280;44775;51.564;5.460;2023-07-31T02:42:34;100699.47;;;15.24;100.00
58473;BME280;44775;51.564;5.460;2023-07-31T02:45:00;100689.94;;;15.21;100.00
58473;BME280;44775;51.564;5.460;2023-07-31T02:47:25;100687.47;;;15.26;100.00
58473;BME280;44775;51.564;5.460;2023-07-31T02:49:50;100690.97;;;15.20;100.00
58473;BME280;44775;51.564;5.460;2023-07-31T02:52:16;100697.19;;;15.21;100.00
58473;BME280;44775;51.564;5.460;2023-07-31T02:54:41;100691.59;;;15.22;100.00
58473;BME280;44775;51.564;5.460;2023-07-31T02:57:06;100689.31;;;15.19;100.00
58473;BME280;44775;51.564;5.460;2023-07-31T02:59:32;100694.28;;;15.22;100.00
58473;BME280;44775;51.564;5.460;2023-07-31T03:01:57;100688.91;;;15.22;100.00
58473;BME280;44775;51.564;5.460;2023-07-31T03:04:23;100685.16;;;15.17;100.00
58473;BME280;44775;51.564;5.460;2023-07-31T03:06:48;100681.25;;;15.19;100.00
58473;BME280;44775;51.564;5.460;2023-07-31T03:09:13;100670.06;;;15.16;100.00
58473;BME280;44775;51.564;5.460;2023-07-31T03:11:39;100675.84;;;15.19;100.00
58473;BME280;44775;51.564;5.460;2023-07-31T03:14:04;100682.06;;;15.20;100.00
58473;BME280;44775;51.564;5.460;2023-07-31T03:16:29;100684.75;;;15.13;100.00
58473;BME280;44775;51.564;5.460;2023-07-31T03:18:54;100679.56;;;15.18;100.00
58473;BME280;44775;51.564;5.460;2023-07-31T03:21:20;100682.25;;;15.18;100.00
58473;BME280;44775;51.564;5.460;2023-07-31T03:23:45;100682.66;;;15.22;100.00
58473;BME280;44775;51.564;5.460;2023-07-31T03:26:10;100678.13;;;15.16;100.00
58473;BME280;44775;51.564;5.460;2023-07-31T03:28:36;100681.44;;;15.18;100.00
58473;BME280;44775;51.564;5.460;2023-07-31T03:31:01;100681.84;;;15.21;100.00
58473;BME280;44775;51.564;5.460;2023-07-31T03:33:27;100671.69;;;15.17;100.00
58473;BME280;44775;51.564;5.460;2023-07-31T03:35:52;100672.31;;;15.12;100.00
58473;BME280;44775;51.564;5.460;2023-07-31T03:38:19;100658.44;;;15.15;100.00
58473;BME280;44775;51.564;5.460;2023-07-31T03:40:44;100655.53;;;15.10;100.00
58473;BME280;44775;51.564;5.460;2023-07-31T03:43:10;100652.84;;;15.10;100.00
58473;BME280;44775;51.564;5.460;2023-07-31T03:45:36;100657.63;;;15.21;100.00
58473;BME280;44775;51.564;5.460;2023-07-31T03:48:02;100655.34;;;15.18;100.00
58473;BME280;44775;51.564;5.460;2023-07-31T03:50:27;100652.88;;;15.23;100.00
58473;BME280;44775;51.564;5.460;2023-07-31T03:52:52;100644.81;;;15.23;100.00
58473;BME280;44775;51.564;5.460;2023-07-31T03:55:18;100649.75;;;15.20;100.00
58473;BME280;44775;51.564;5.460;2023-07-31T03:57:43;100647.50;;;15.23;100.00
58473;BME280;44775;51.564;5.460;2023-07-31T04:00:09;100644.19;;;15.28;100.00
58473;BME280;44775;51.564;5.460;2023-07-31T04:02:35;100636.50;;;15.25;100.00
58473;BME280;44775;51.564;5.460;2023-07-31T04:05:00;100643.56;;;15.26;100.00
58473;BME280;44775;51.564;5.460;2023-07-31T04:07:25;100627.84;;;15.29;100.00
58473;BME280;44775;51.564;5.460;2023-07-31T04:09:50;100626.16;;;15.28;100.00
58473;BME280;44775;51.564;5.460;2023-07-31T04:12:16;100625.75;;;15.31;100.00
58473;BME280;44775;51.564;5.460;2023-07-31T04:14:41;100618.94;;;15.35;100.00
58473;BME280;44775;51.564;5.460;2023-07-31T04:17:06;100615.22;;;15.37;100.00
58473;BME280;44775;51.564;5.460;2023-07-31T04:19:32;100619.78;;;15.36;100.00
58473;BME280;44775;51.564;5.460;2023-07-31T04:21:57;100616.88;;;15.44;100.00
58473;BME280;44775;51.564;5.460;2023-07-31T04:24:22;100619.13;;;15.41;100.00
58473;BME280;44775;51.564;5.460;2023-07-31T04:26:51;100617.69;;;15.45;100.00
58473;BME280;44775;51.564;5.460;2023-07-31T04:29:16;100612.31;;;15.45;100.00
58473;BME280;44775;51.564;5.460;2023-07-31T04:31:42;100608.38;;;15.47;100.00
58473;BME280;44775;51.564;5.460;2023-07-31T04:34:07;100612.53;;;15.50;100.00
58473;BME280;44775;51.564;5.460;2023-07-31T04:36:33;100614.59;;;15.54;100.00
58473;BME280;44775;51.564;5.460;2023-07-31T04:38:59;100609.63;;;15.58;100.00
58473;BME280;44775;51.564;5.460;2023-07-31T04:41:24;100609.19;;;15.61;100.00
58473;BME280;44775;51.564;5.460;2023-07-31T04:43:49;100606.31;;;15.63;100.00
58473;BME280;44775;51.564;5.460;2023-07-31T04:46:15;100595.31;;;15.64;100.00
58473;BME280;44775;51.564;5.460;2023-07-31T04:48:40;100596.38;;;15.63;100.00
58473;BME280;44775;51.564;5.460;2023-07-31T04:51:05;100595.53;;;15.56;100.00
58473;BME280;44775;51.564;5.460;2023-07-31T04:53:30;100589.31;;;15.62;100.00
58473;BME280;44775;51.564;5.460;2023-07-31T04:55:56;100587.03;;;15.59;100.00
58473;BME280;44775;51.564;5.460;2023-07-31T04:58:21;100582.69;;;15.58;100.00
58473;BME280;44775;51.564;5.460;2023-07-31T05:00:46;100577.50;;;15.63;100.00
58473;BME280;44775;51.564;5.460;2023-07-31T05:03:12;100586.84;;;15.61;100.00
58473;BME280;44775;51.564;5.460;2023-07-31T05:05:37;100573.13;;;15.62;100.00
58473;BME280;44775;51.564;5.460;2023-07-31T05:08:03;100572.94;;;15.64;100.00
58473;BME280;44775;51.564;5.460;2023-07-31T05:10:28;100583.50;;;15.65;100.00
58473;BME280;44775;51.564;5.460;2023-07-31T05:12:53;100579.19;;;15.71;100.00
58473;BME280;44775;51.564;5.460;2023-07-31T05:15:18;100571.31;;;15.69;100.00
58473;BME280;44775;51.564;5.460;2023-07-31T05:17:44;100560.53;;;15.63;100.00
58473;BME280;44775;51.564;5.460;2023-07-31T05:20:09;100565.31;;;15.67;100.00
58473;BME280;44775;51.564;5.460;2023-07-31T05:22:35;100551.59;;;15.62;100.00
58473;BME280;44775;51.564;5.460;2023-07-31T05:25:01;100557.19;;;15.61;100.00
58473;BME280;44775;51.564;5.460;2023-07-31T05:27:26;100560.09;;;15.59;100.00
58473;BME280;44775;51.564;5.460;2023-07-31T05:29:51;100565.69;;;15.57;100.00
58473;BME280;44775;51.564;5.460;2023-07-31T05:32:17;100562.78;;;15.59;100.00
58473;BME280;44775;51.564;5.460;2023-07-31T05:34:42;100559.91;;;15.54;100.00
58473;BME280;44775;51.564;5.460;2023-07-31T05:37:09;100569.06;;;15.66;100.00
58473;BME280;44775;51.564;5.460;2023-07-31T05:39:35;100562.38;;;15.62;100.00
58473;BME280;44775;51.564;5.460;2023-07-31T05:42:00;100564.88;;;15.64;100.00
58473;BME280;44775;51.564;5.460;2023-07-31T05:44:25;100555.75;;;15.58;100.00
58473;BME280;44775;51.564;5.460;2023-07-31T05:46:51;100553.69;;;15.60;100.00
58473;BME280;44775;51.564;5.460;2023-07-31T05:49:16;100553.88;;;15.52;100.00
58473;BME280;44775;51.564;5.460;2023-07-31T05:51:41;100539.59;;;15.51;100.00
58473;BME280;44775;51.564;5.460;2023-07-31T05:54:07;100532.56;;;15.44;100.00
58473;BME280;44775;51.564;5.460;2023-07-31T05:56:32;100549.53;;;15.38;100.00
58473;BME280;44775;51.564;5.460;2023-07-31T05:58:59;100530.09;;;15.35;100.00
58473;BME280;44775;51.564;5.460;2023-07-31T06:01:24;100523.03;;;15.34;100.00
58473;BME280;44775;51.564;5.460;2023-07-31T06:03:49;100538.59;;;15.32;100.00
58473;BME280;44775;51.564;5.460;2023-07-31T06:06:15;100523.66;;;15.30;100.00
58473;BME280;44775;51.564;5.460;2023-07-31T06:08:40;100523.66;;;15.37;100.00
58473;BME280;44775;51.564;5.460;2023-07-31T06:11:06;100518.47;;;15.42;100.00
58473;BME280;44775;51.564;5.460;2023-07-31T06:13:33;100534.63;;;15.48;100.00
58473;BME280;44775;51.564;5.460;2023-07-31T06:15:59;100519.50;;;15.47;100.00
58473;BME280;44775;51.564;5.460;2023-07-31T06:18:24;100523.03;;;15.48;100.00
58473;BME280;44775;51.564;5.460;2023-07-31T06:20:50;100519.75;;;15.39;100.00
58473;BME280;44775;51.564;5.460;2023-07-31T06:23:19;100515.38;;;15.45;100.00
58473;BME280;44775;51.564;5.460;2023-07-31T06:25:44;100514.13;;;15.41;100.00
58473;BME280;44775;51.564;5.460;2023-07-31T06:28:09;100510.59;;;15.47;100.00
58473;BME280;44775;51.564;5.460;2023-07-31T06:30:35;100511.44;;;15.54;100.00
58473;BME280;44775;51.564;5.460;2023-07-31T06:33:00;100516.81;;;15.54;100.00
58473;BME280;44775;51.564;5.460;2023-07-31T06:35:25;100506.47;;;15.44;100.00
58473;BME280;44775;51.564;5.460;2023-07-31T06:37:51;100506.88;;;15.48;100.00
58473;BME280;44775;51.564;5.460;2023-07-31T06:40:16;100507.91;;;15.47;100.00
58473;BME280;44775;51.564;5.460;2023-07-31T06:42:42;100500.63;;;15.61;100.00
58473;BME280;44775;51.564;5.460;2023-07-31T06:45:07;100501.28;;;15.56;100.00
58473;BME280;44775;51.564;5.460;2023-07-31T06:47:33;100501.88;;;15.58;100.00
58473;BME280;44775;51.564;5.460;2023-07-31T06:49:58;100496.91;;;15.55;100.00
58473;BME280;44775;51.564;5.460;2023-07-31T06:52:23;100503.97;;;15.63;100.00
58473;BME280;44775;51.564;5.460;2023-07-31T06:55:01;100489.06;;;15.67;100.00
58473;BME280;44775;51.564;5.460;2023-07-31T06:57:27;100499.00;;;15.79;100.00
58473;BME280;44775;51.564;5.460;2023-07-31T06:59:52;100488.63;;;15.63;100.00
58473;BME280;44775;51.564;5.460;2023-07-31T07:02:18;100489.66;;;15.69;100.00
58473;BME280;44775;51.564;5.460;2023-07-31T07:04:43;100494.63;;;15.65;100.00
58473;BME280;44775;51.564;5.460;2023-07-31T07:07:08;100487.81;;;15.69;100.00
58473;BME280;44775;51.564;5.460;2023-07-31T07:09:34;100491.53;;;15.68;100.00
58473;BME280;44775;51.564;5.460;2023-07-31T07:11:59;100490.28;;;15.77;100.00
58473;BME280;44775;51.564;5.460;2023-07-31T07:14:24;100480.31;;;15.78;100.00
58473;BME280;44775;51.564;5.460;2023-07-31T07:16:52;100473.06;;;15.78;100.00
58473;BME280;44775;51.564;5.460;2023-07-31T07:19:18;100479.91;;;15.81;100.00
58473;BME280;44775;51.564;5.460;2023-07-31T07:21:43;100484.25;;;15.82;100.00
58473;BME280;44775;51.564;5.460;2023-07-31T07:24:08;100486.09;;;15.88;100.00
58473;BME280;44775;51.564;5.460;2023-07-31T07:26:34;100480.31;;;15.85;100.00
58473;BME280;44775;51.564;5.460;2023-07-31T07:28:59;100482.97;;;15.91;100.00
58473;BME280;44775;51.564;5.460;2023-07-31T07:31:27;100482.75;;;15.93;100.00
58473;BME280;44775;51.564;5.460;2023-07-31T07:33:52;100464.38;;;15.83;100.00
58473;BME280;44775;51.564;5.460;2023-07-31T07:36:18;100482.81;;;15.79;100.00
58473;BME280;44775;51.564;5.460;2023-07-31T07:38:43;100471.41;;;15.77;100.00
58473;BME280;44775;51.564;5.460;2023-07-31T07:41:08;100476.56;;;15.79;100.00
58473;BME280;44775;51.564;5.460;2023-07-31T07:43:34;100479.25;;;15.86;100.00
58473;BME280;44775;51.564;5.460;2023-07-31T07:45:59;100479.91;;;15.81;100.00
58473;BME280;44775;51.564;5.460;2023-07-31T07:48:24;100481.09;;;15.92;100.00
58473;BME280;44775;51.564;5.460;2023-07-31T07:50:50;100474.03;;;15.97;100.00
58473;BME280;44775;51.564;5.460;2023-07-31T07:53:16;100471.16;;;15.86;100.00
58473;BME280;44775;51.564;5.460;2023-07-31T07:55:41;100473.00;;;15.98;100.00
58473;BME280;44775;51.564;5.460;2023-07-31T07:58:07;100484.44;;;15.94;100.00
58473;BME280;44775;51.564;5.460;2023-07-31T08:00:33;100473.25;;;15.90;100.00
58473;BME280;44775;51.564;5.460;2023-07-31T08:02:58;100477.78;;;15.96;100.00
58473;BME280;44775;51.564;5.460;2023-07-31T08:05:23;100468.69;;;15.91;100.00
58473;BME280;44775;51.564;5.460;2023-07-31T08:07:49;100476.34;;;15.94;100.00
58473;BME280;44775;51.564;5.460;2023-07-31T08:10:14;100468.69;;;15.91;100.00
58473;BME280;44775;51.564;5.460;2023-07-31T08:12:39;100461.41;;;15.91;100.00
58473;BME280;44775;51.564;5.460;2023-07-31T08:15:05;100472.16;;;16.04;100.00
58473;BME280;44775;51.564;5.460;2023-07-31T08:17:31;100461.41;;;15.98;100.00
58473;BME280;44775;51.564;5.460;2023-07-31T08:19:56;100465.31;;;16.02;100.00
58473;BME280;44775;51.564;5.460;2023-07-31T08:22:23;100463.22;;;16.11;100.00
58473;BME280;44775;51.564;5.460;2023-07-31T08:24:49;100468.63;;;16.04;100.00
58473;BME280;44775;51.564;5.460;2023-07-31T08:27:14;100465.50;;;16.07;100.00
58473;BME280;44775;51.564;5.460;2023-07-31T08:29:39;100473.38;;;16.09;100.00
58473;BME280;44775;51.564;5.460;2023-07-31T08:32:05;100478.16;;;16.07;100.00
58473;BME280;44775;51.564;5.460;2023-07-31T08:34:30;100469.88;;;16.01;100.00
58473;BME280;44775;51.564;5.460;2023-07-31T08:36:56;100466.56;;;15.99;100.00
58473;BME280;44775;51.564;5.460;2023-07-31T08:39:21;100461.41;;;15.98;100.00
58473;BME280;44775;51.564;5.460;2023-07-31T08:41:47;100464.91;;;15.98;100.00
58473;BME280;44775;51.564;5.460;2023-07-31T08:44:13;100471.31;;;16.04;100.00
58473;BME280;44775;51.564;5.460;2023-07-31T08:46:40;100477.34;;;15.99;100.00
58473;BME280;44775;51.564;5.460;2023-07-31T08:49:06;100480.66;;;16.01;100.00
58473;BME280;44775;51.564;5.460;2023-07-31T08:51:34;100464.94;;;15.92;100.00
58473;BME280;44775;51.564;5.460;2023-07-31T08:54:00;100479.00;;;16.07;100.00
58473;BME280;44775;51.564;5.460;2023-07-31T08:56:27;100462.44;;;15.97;100.00
58473;BME280;44775;51.564;5.460;2023-07-31T08:58:54;100468.44;;;15.99;100.00
58473;BME280;44775;51.564;5.460;2023-07-31T09:01:20;100454.78;;;15.94;100.00
58473;BME280;44775;51.564;5.460;2023-07-31T09:03:47;100454.97;;;15.99;100.00
58473;BME280;44775;51.564;5.460;2023-07-31T09:06:13;100456.41;;;16.01;100.00
58473;BME280;44775;51.564;5.460;2023-07-31T09:08:41;100457.63;;;16.05;100.00
58473;BME280;44775;51.564;5.460;2023-07-31T09:11:07;100453.66;;;16.15;100.00
58473;BME280;44775;51.564;5.460;2023-07-31T09:13:34;100463.81;;;16.13;100.00
58473;BME280;44775;51.564;5.460;2023-07-31T09:15:59;100465.44;;;16.20;100.00
58473;BME280;44775;51.564;5.460;2023-07-31T09:18:25;100456.94;;;16.23;100.00
58473;BME280;44775;51.564;5.460;2023-07-31T09:21:05;100453.59;;;16.28;100.00
58473;BME280;44775;51.564;5.460;2023-07-31T09:23:44;100451.66;;;16.35;100.00
58473;BME280;44775;51.564;5.460;2023-07-31T09:26:09;100462.50;;;16.60;100.00
58473;BME280;44775;51.564;5.460;2023-07-31T09:28:35;100460.47;;;16.56;100.00
58473;BME280;44775;51.564;5.460;2023-07-31T09:31:00;100451.50;;;16.62;100.00
58473;BME280;44775;51.564;5.460;2023-07-31T09:33:25;100459.31;;;16.70;100.00
58473;BME280;44775;51.564;5.460;2023-07-31T09:35:51;100453.72;;;16.71;100.00
58473;BME280;44775;51.564;5.460;2023-07-31T09:38:16;100442.53;;;16.74;100.00
58473;BME280;44775;51.564;5.460;2023-07-31T09:40:51;100452.03;;;16.77;100.00
58473;BME280;44775;51.564;5.460;2023-07-31T09:43:20;100445.22;;;16.74;100.00
58473;BME280;44775;51.564;5.460;2023-07-31T09:45:46;100441.44;;;16.82;100.00
58473;BME280;44775;51.564;5.460;2023-07-31T09:48:16;100438.63;;;16.95;100.00
58473;BME280;44775;51.564;5.460;2023-07-31T09:50:43;100434.38;;;17.06;100.00
58473;BME280;44775;51.564;5.460;2023-07-31T09:53:09;100437.06;;;17.06;100.00
58473;BME280;44775;51.564;5.460;2023-07-31T09:55:36;100442.84;;;17.10;100.00
58473;BME280;44775;51.564;5.460;2023-07-31T09:58:06;100440.03;;;17.23;100.00
58473;BME280;44775;51.564;5.460;2023-07-31T10:00:34;100442.44;;;17.31;100.00
58473;BME280;44775;51.564;5.460;2023-07-31T10:03:02;100446.56;;;17.34;100.00
58473;BME280;44775;51.564;5.460;2023-07-31T10:05:32;100439.91;;;17.36;100.00
58473;BME280;44775;51.564;5.460;2023-07-31T10:07:59;100449.81;;;17.42;100.00
58473;BME280;44775;51.564;5.460;2023-07-31T10:10:25;100435.25;;;17.43;100.00
58473;BME280;44775;51.564;5.460;2023-07-31T10:12:52;100434.13;;;17.33;100.00
58473;BME280;44775;51.564;5.460;2023-07-31T10:15:18;100428.72;;;17.51;100.00
58473;BME280;44775;51.564;5.460;2023-07-31T10:17:44;100429.66;;;17.82;100.00
58473;BME280;44775;51.564;5.460;2023-07-31T10:20:11;100431.22;;;18.08;100.00
58473;BME280;44775;51.564;5.460;2023-07-31T10:22:38;100426.59;;;18.27;100.00
58473;BME280;44775;51.564;5.460;2023-07-31T10:25:04;100427.19;;;18.29;100.00
58473;BME280;44775;51.564;5.460;2023-07-31T10:27:29;100429.44;;;18.32;100.00
58473;BME280;44775;51.564;5.460;2023-07-31T10:29:57;100428.69;;;18.25;100.00
58473;BME280;44775;51.564;5.460;2023-07-31T10:32:24;100432.75;;;18.15;100.00
58473;BME280;44775;51.564;5.460;2023-07-31T10:34:51;100438.94;;;18.23;100.00
58473;BME280;44775;51.564;5.460;2023-07-31T10:39:58;100449.50;;;18.54;100.00
58473;BME280;44775;51.564;5.460;2023-07-31T10:42:27;100439.28;;;18.56;100.00
58473;BME280;44775;51.564;5.460;2023-07-31T10:44:57;100446.09;;;18.59;100.00
58473;BME280;44775;51.564;5.460;2023-07-31T10:47:23;100430.66;;;18.48;100.00
58473;BME280;44775;51.564;5.460;2023-07-31T10:49:48;100438.94;;;18.64;100.00
58473;BME280;44775;51.564;5.460;2023-07-31T10:52:19;100445.09;;;18.72;100.00
58473;BME280;44775;51.564;5.460;2023-07-31T10:54:48;100442.31;;;18.48;100.00
58473;BME280;44775;51.564;5.460;2023-07-31T10:57:21;100441.63;;;18.53;100.00
58473;BME280;44775;51.564;5.460;2023-07-31T10:59:48;100427.34;;;18.46;100.00
58473;BME280;44775;51.564;5.460;2023-07-31T11:02:25;100425.34;;;18.41;100.00
58473;BME280;44775;51.564;5.460;2023-07-31T11:05:09;100431.56;;;18.30;100.00
58473;BME280;44775;51.564;5.460;2023-07-31T11:07:48;100435.16;;;18.24;100.00
58473;BME280;44775;51.564;5.460;2023-07-31T11:10:16;100423.34;;;18.06;100.00
58473;BME280;44775;51.564;5.460;2023-07-31T11:12:42;100431.84;;;18.22;100.00
58473;BME280;44775;51.564;5.460;2023-07-31T11:15:08;100421.03;;;18.22;100.00
58473;BME280;44775;51.564;5.460;2023-07-31T11:17:33;100422.41;;;18.42;100.00
58473;BME280;44775;51.564;5.460;2023-07-31T11:19:58;100419.47;;;18.74;100.00
58473;BME280;44775;51.564;5.460;2023-07-31T11:22:23;100420.16;;;18.70;100.00
58473;BME280;44775;51.564;5.460;2023-07-31T11:24:49;100420.19;;;18.81;100.00
58473;BME280;44775;51.564;5.460;2023-07-31T11:27:14;100420.81;;;18.65;100.00
58473;BME280;44775;51.564;5.460;2023-07-31T11:29:40;100421.19;;;18.69;100.00
58473;BME280;44775;51.564;5.460;2023-07-31T11:32:15;100420.81;;;18.53;100.00
58473;BME280;44775;51.564;5.460;2023-07-31T11:34:54;100417.84;;;18.43;100.00
58473;BME280;44775;51.564;5.460;2023-07-31T11:37:20;100408.41;;;18.34;100.00
58473;BME280;44775;51.564;5.460;2023-07-31T11:39:59;100408.19;;;18.47;100.00
58473;BME280;44775;51.564;5.460;2023-07-31T11:42:24;100405.47;;;18.89;100.00
58473;BME280;44775;51.564;5.460;2023-07-31T11:44:50;100410.19;;;19.05;100.00
58473;BME280;44775;51.564;5.460;2023-07-31T11:47:16;100403.84;;;19.11;100.00
58473;BME280;44775;51.564;5.460;2023-07-31T11:49:42;100396.66;;;19.17;100.00
58473;BME280;44775;51.564;5.460;2023-07-31T11:52:07;100408.19;;;19.24;100.00
58473;BME280;44775;51.564;5.460;2023-07-31T11:54:32;100400.28;;;19.23;100.00
58473;BME280;44775;51.564;5.460;2023-07-31T11:56:58;100401.13;;;19.35;100.00
58473;BME280;44775;51.564;5.460;2023-07-31T11:59:26;100408.63;;;19.56;100.00
58473;BME280;44775;51.564;5.460;2023-07-31T12:01:51;100394.28;;;19.32;100.00
58473;BME280;44775;51.564;5.460;2023-07-31T12:04:19;100389.59;;;19.28;100.00
58473;BME280;44775;51.564;5.460;2023-07-31T12:06:45;100402.75;;;19.13;100.00
58473;BME280;44775;51.564;5.460;2023-07-31T12:09:10;100419.63;;;19.15;100.00
58473;BME280;44775;51.564;5.460;2023-07-31T12:11:45;100406.28;;;18.78;100.00
58473;BME280;44775;51.564;5.460;2023-07-31T12:14:22;100397.44;;;18.71;100.00
58473;BME280;44775;51.564;5.460;2023-07-31T12:16:56;100407.84;;;18.55;100.00
58473;BME280;44775;51.564;5.460;2023-07-31T12:19:22;100409.97;;;18.53;100.00
58473;BME280;44775;51.564;5.460;2023-07-31T12:21:49;100414.78;;;18.51;100.00
58473;BME280;44775;51.564;5.460;2023-07-31T12:24:15;100398.56;;;18.51;100.00
58473;BME280;44775;51.564;5.460;2023-07-31T12:26:45;100392.56;;;18.61;100.00
58473;BME280;44775;51.564;5.460;2023-07-31T12:29:14;100386.66;;;18.52;100.00
58473;BME280;44775;51.564;5.460;2023-07-31T12:31:41;100376.81;;;18.58;100.00
58473;BME280;44775;51.564;5.460;2023-07-31T12:34:15;100386.34;;;18.60;100.00
58473;BME280;44775;51.564;5.460;2023-07-31T12:36:42;100385.13;;;18.45;100.00
58473;BME280;44775;51.564;5.460;2023-07-31T12:39:07;100382.88;;;18.30;100.00
58473;BME280;44775;51.564;5.460;2023-07-31T12:41:33;100387.75;;;18.21;100.00